ESSB/BMA METAR and TAF weather

Enter ICAO airport designator
Station Type Date Time Source
ESSB METAR 2022/01/26 14:50 UTC NOAA

ESSB 261450Z 21004KT 180V240 9999 BKN030 03/02 Q1004


Station Type Date Time Source
ESSB Decoded METAR 2022/01/26 14:50 UTC NOAA

Stockholm / Bromma, Sweden (ESSB) 59-21N 017-57E 14M
Jan 26, 2022 - 09:50 AM EST / 2022.01.26 1450 UTC
Wind: from the SSW (210 degrees) at 5 MPH (4 KT) (direction variable):0
Visibility: greater than 7 mile(s):0
Sky conditions: mostly cloudy
Temperature: 37 F (3 C)
Dew Point: 35 F (2 C)
Relative Humidity: 93%
Pressure (altimeter): 29.65 in. Hg (1004 hPa)
ob: ESSB 261450Z 21004KT 180V240 9999 BKN030 03/02 Q1004
cycle: 15

Station Type Date Time Source
ESSB TAF 2017/03/27 06:35 UTC NOAA

TAF ESSB 270530Z 2706/2724 27008KT CAVOK
BECMG 2710/2713 29015G25KT

Example: see airport list